KJAN

Jackson-Medgar Wiley Evers International Airport

Jackson, Mississippi, USA
METAR KJAN 271154Z 08003KT 2SM BR BKN002 19/19 A2989 RMK AO2 SLP118 T01940194 10194 20183 53010
Observed Flight Rules
May-27 @ 11:54 UTC (8 minutes ago) Instrument Flight Rules
Wind Visibility Clouds Conditions
80° at 3 knots 2 miles
  • Broken at 200' AGL
  • Mist
Temperatures Readings
Current 19°C / 66°F
Dewpoint 19°C / 66°F
Humidity 100%
Altimeter 29.89" Hg
Pressure 1011.8 hPa
Elevation 91
METAR KJAN 271154Z 08003KT 2SM BR BKN002 19/19 A2989 RMK AO2 SLP118 T01940194 10194 20183 53010
Observed Flight Rules
May-27 @ 11:54 UTC
(8 minutes ago)
LIFR
Wind Visibility
80° at 3 knots 2 miles
Clouds
  • Broken at 200' AGL
Conditions
  • Mist
Temperature Dewpoint
19°C / 66°F 19°C / 66°F
Humidity Altimeter Pressure
100% 29.89" Hg 1011.8 hPa